createdAt,value
2022-07-26T00:02:51.594Z,225
2022-07-26T00:07:51.944Z,225
2022-07-26T00:12:51.287Z,225
2022-07-26T00:17:51.521Z,225
2022-07-26T00:22:51.618Z,248
2022-07-26T00:27:51.738Z,248
2022-07-26T00:32:51.934Z,248
2022-07-26T00:37:51.235Z,248
2022-07-26T00:42:51.374Z,248
2022-07-26T00:47:51.518Z,248
2022-07-26T00:52:51.794Z,248
2022-07-26T00:57:52.021Z,248
2022-07-26T01:02:52.079Z,270
2022-07-26T01:07:51.506Z,270
2022-07-26T01:12:51.709Z,225
2022-07-26T01:17:51.782Z,225
2022-07-26T01:22:51.856Z,270
2022-07-26T01:27:52.058Z,270
2022-07-26T01:32:51.573Z,225
2022-07-26T01:37:51.835Z,225
2022-07-26T01:42:51.233Z,248
2022-07-26T01:47:51.392Z,248
2022-07-26T01:52:51.601Z,225
2022-07-26T01:57:51.838Z,225
2022-07-26T02:02:52.872Z,225
2022-07-26T02:07:52.148Z,225
2022-07-26T02:12:51.347Z,180
2022-07-26T02:17:51.478Z,180
2022-07-26T02:22:51.689Z,202
2022-07-26T02:27:52.004Z,202
2022-07-26T02:32:51.167Z,202
2022-07-26T02:37:51.578Z,202
2022-07-26T02:42:52.138Z,180
2022-07-26T02:47:51.757Z,180
2022-07-26T02:52:51.449Z,248
2022-07-26T02:57:51.480Z,248
2022-07-26T03:02:51.811Z,225
2022-07-26T03:07:51.866Z,225
2022-07-26T03:12:52.783Z,248
2022-07-26T03:17:51.321Z,248
2022-07-26T03:22:51.419Z,248
2022-07-26T03:27:51.938Z,248
2022-07-26T03:32:51.500Z,225
2022-07-26T03:37:51.777Z,225
2022-07-26T03:42:51.730Z,225
2022-07-26T03:47:51.458Z,225
2022-07-26T03:52:51.833Z,225
2022-07-26T03:57:51.338Z,225
2022-07-26T04:02:51.585Z,248
2022-07-26T04:07:53.986Z,248
2022-07-26T04:12:52.239Z,225
2022-07-26T04:17:51.753Z,225
2022-07-26T04:22:51.790Z,225
2022-07-26T04:27:52.106Z,225
2022-07-26T04:32:51.513Z,270
2022-07-26T04:37:52.292Z,270
2022-07-26T04:42:51.473Z,292
2022-07-26T04:47:51.758Z,292
2022-07-26T04:52:52.093Z,270
2022-07-26T04:57:51.290Z,270
2022-07-26T05:02:52.274Z,270
2022-07-26T05:07:51.675Z,270
2022-07-26T05:12:52.111Z,292
2022-07-26T05:17:51.325Z,292
2022-07-26T05:22:52.056Z,270
2022-07-26T05:27:52.198Z,270
2022-07-26T05:32:51.519Z,225
2022-07-26T05:37:51.777Z,225
2022-07-26T05:42:51.949Z,270
2022-07-26T05:47:52.116Z,270
2022-07-26T05:52:51.557Z,248
2022-07-26T05:57:51.875Z,248
2022-07-26T06:02:52.399Z,225
2022-07-26T06:07:51.734Z,225
2022-07-26T06:12:51.979Z,270
2022-07-26T06:17:52.203Z,270
2022-07-26T06:22:51.430Z,248
2022-07-26T06:27:51.793Z,248
2022-07-26T06:32:52.031Z,270
2022-07-26T06:37:52.430Z,270
2022-07-26T06:42:51.543Z,248
2022-07-26T06:47:51.861Z,248
2022-07-26T06:52:52.071Z,248
2022-07-26T06:57:52.244Z,248
2022-07-26T07:02:51.709Z,292
2022-07-26T07:07:52.181Z,292
2022-07-26T07:12:51.711Z,270
2022-07-26T07:17:52.012Z,270
2022-07-26T07:22:52.369Z,315
2022-07-26T07:27:52.609Z,315
2022-07-26T07:32:52.051Z,270
2022-07-26T07:37:54.372Z,270
2022-07-26T07:42:51.731Z,292
2022-07-26T07:47:51.931Z,292
2022-07-26T07:52:52.406Z,270
2022-07-26T07:57:52.040Z,270
2022-07-26T08:02:52.155Z,292
2022-07-26T08:07:52.877Z,292
2022-07-26T08:12:52.229Z,248
2022-07-26T08:17:55.102Z,248
2022-07-26T08:22:52.335Z,270
2022-07-26T08:28:04.365Z,270
2022-07-26T08:32:51.757Z,248
2022-07-26T08:37:52.201Z,248
2022-07-26T08:42:53.089Z,315
2022-07-26T08:48:19.143Z,315
2022-07-26T08:52:52.287Z,270
2022-07-26T08:57:51.736Z,270
2022-07-26T09:02:51.627Z,270
2022-07-26T09:07:52.130Z,270
2022-07-26T09:12:51.804Z,270
2022-07-26T09:17:51.965Z,270
2022-07-26T09:22:51.592Z,315
2022-07-26T09:27:51.886Z,315
2022-07-26T09:32:59.324Z,315
2022-07-26T09:37:51.713Z,315
2022-07-26T09:42:52.142Z,292
2022-07-26T09:47:51.458Z,292
2022-07-26T09:52:51.768Z,270
2022-07-26T09:57:52.105Z,270
2022-07-26T10:02:52.506Z,292
2022-07-26T10:07:51.766Z,292
2022-07-26T10:12:52.150Z,315
2022-07-26T10:17:54.372Z,315
2022-07-26T10:22:51.503Z,315
2022-07-26T10:27:51.706Z,315
2022-07-26T10:32:51.867Z,270
2022-07-26T10:37:52.259Z,270
2022-07-26T10:42:51.600Z,248
2022-07-26T10:47:52.121Z,248
2022-07-26T10:52:52.384Z,315
2022-07-26T10:57:51.532Z,315
2022-07-26T11:02:51.846Z,292
2022-07-26T11:07:52.204Z,292
2022-07-26T11:12:52.373Z,292
2022-07-26T11:17:51.601Z,292
2022-07-26T11:22:51.765Z,315
2022-07-26T11:27:51.949Z,315
2022-07-26T11:32:52.293Z,270
2022-07-26T11:37:52.464Z,270
2022-07-26T11:42:51.808Z,248
2022-07-26T11:47:52.022Z,248
2022-07-26T11:52:52.219Z,270
2022-07-26T11:57:52.338Z,270
2022-07-26T12:02:56.314Z,315
2022-07-26T12:07:51.671Z,315
2022-07-26T12:12:51.930Z,270
2022-07-26T12:17:51.544Z,270
2022-07-26T12:22:51.850Z,315
2022-07-26T12:27:52.067Z,315
2022-07-26T12:32:52.242Z,292
2022-07-26T12:37:53.952Z,292
2022-07-26T12:43:02.954Z,270
2022-07-26T12:47:52.310Z,270
2022-07-26T12:52:52.427Z,270
2022-07-26T12:57:57.409Z,270
2022-07-26T13:02:52.547Z,292
2022-07-26T13:07:52.733Z,292
2022-07-26T13:12:51.866Z,315
2022-07-26T13:17:51.950Z,315
2022-07-26T13:22:52.002Z,270
2022-07-26T13:27:51.728Z,270
2022-07-26T13:32:52.006Z,315
2022-07-26T13:37:52.303Z,315
2022-07-26T13:42:52.136Z,315
2022-07-26T13:47:52.376Z,315
2022-07-26T13:52:51.606Z,270
2022-07-26T13:57:58.734Z,270
2022-07-26T14:02:53.666Z,315
2022-07-26T14:07:51.971Z,315
2022-07-26T14:12:52.309Z,315
2022-07-26T14:17:53.031Z,315
2022-07-26T14:22:52.261Z,270
2022-07-26T14:27:52.418Z,270
2022-07-26T14:32:51.740Z,292
2022-07-26T14:37:52.155Z,292
2022-07-26T14:42:52.465Z,315
2022-07-26T14:47:51.985Z,315
2022-07-26T14:52:52.502Z,292
2022-07-26T14:57:51.884Z,292
2022-07-26T15:02:52.028Z,270
2022-07-26T15:07:52.508Z,270
2022-07-26T15:12:52.267Z,270
2022-07-26T15:17:51.806Z,270
2022-07-26T15:22:51.770Z,248
2022-07-26T15:27:52.607Z,248
2022-07-26T15:32:52.641Z,315
2022-07-26T15:37:51.779Z,315
2022-07-26T15:42:53.759Z,270
2022-07-26T15:48:18.212Z,270
2022-07-26T15:52:52.220Z,270
2022-07-26T15:57:52.424Z,270
2022-07-26T16:02:52.836Z,315
2022-07-26T16:07:52.376Z,315
2022-07-26T16:12:52.760Z,270
2022-07-26T16:17:52.339Z,270
2022-07-26T16:22:52.588Z,270
2022-07-26T16:27:51.822Z,270
2022-07-26T16:32:52.262Z,292
2022-07-26T16:37:52.395Z,292
2022-07-26T16:42:51.871Z,315
2022-07-26T16:48:00.309Z,315
2022-07-26T16:52:52.465Z,315
2022-07-26T16:57:52.691Z,315
2022-07-26T17:02:51.910Z,248
2022-07-26T17:07:52.135Z,248
2022-07-26T17:12:52.371Z,270
2022-07-26T17:17:52.587Z,270
2022-07-26T17:22:52.475Z,270
2022-07-26T17:27:52.634Z,270
2022-07-26T17:32:52.263Z,338
2022-07-26T17:37:55.268Z,338
2022-07-26T17:42:52.561Z,292
2022-07-26T17:47:52.692Z,292
2022-07-26T17:52:51.878Z,270
2022-07-26T17:57:52.095Z,270
2022-07-26T18:02:52.147Z,292
2022-07-26T18:07:52.583Z,292
2022-07-26T18:12:51.712Z,292
2022-07-26T18:17:51.952Z,292
2022-07-26T18:22:52.301Z,315
2022-07-26T18:27:51.764Z,315
2022-07-26T18:32:51.874Z,270
2022-07-26T18:37:52.224Z,270
2022-07-26T18:42:52.432Z,270
2022-07-26T18:47:53.911Z,270
2022-07-26T18:52:51.994Z,270
2022-07-26T18:57:52.112Z,270
2022-07-26T19:02:52.332Z,292
2022-07-26T19:07:52.432Z,292
2022-07-26T19:12:51.801Z,248
2022-07-26T19:17:52.056Z,248
2022-07-26T19:22:52.181Z,270
2022-07-26T19:27:52.313Z,270
2022-07-26T19:32:52.473Z,270
2022-07-26T19:37:52.018Z,270
2022-07-26T19:42:52.205Z,180
2022-07-26T19:47:52.317Z,180
2022-07-26T19:52:52.474Z,270
2022-07-26T19:57:52.721Z,270
2022-07-26T20:02:52.048Z,292
2022-07-26T20:07:52.371Z,292
2022-07-26T20:12:52.597Z,225
2022-07-26T20:17:52.789Z,225
2022-07-26T20:22:51.899Z,202
2022-07-26T20:27:52.208Z,202
2022-07-26T20:32:52.512Z,292
2022-07-26T20:37:52.776Z,292
2022-07-26T20:42:52.019Z,270
2022-07-26T20:47:52.301Z,270
2022-07-26T20:52:52.628Z,270
2022-07-26T20:57:52.131Z,270
2022-07-26T21:02:53.060Z,270
2022-07-26T21:08:00.415Z,270
2022-07-26T21:12:52.874Z,248
2022-07-26T21:17:52.124Z,248
2022-07-26T21:22:52.880Z,248
2022-07-26T21:27:52.098Z,248
2022-07-26T21:32:52.889Z,292
2022-07-26T21:37:52.266Z,292
2022-07-26T21:42:52.576Z,225
2022-07-26T21:47:52.731Z,225
2022-07-26T21:52:52.001Z,270
2022-07-26T21:57:52.356Z,270
2022-07-26T22:02:52.669Z,248
2022-07-26T22:07:52.843Z,248
2022-07-26T22:12:52.018Z,270
2022-07-26T22:17:52.203Z,270
2022-07-26T22:22:52.394Z,202
2022-07-26T22:27:52.484Z,202
2022-07-26T22:32:52.646Z,270
2022-07-26T22:37:53.996Z,270
2022-07-26T22:42:52.239Z,270
2022-07-26T22:47:56.862Z,270
2022-07-26T22:52:51.948Z,225
2022-07-26T22:57:52.073Z,225
2022-07-26T23:02:52.640Z,225
2022-07-26T23:07:52.870Z,225
2022-07-26T23:12:52.743Z,248
2022-07-26T23:17:52.063Z,248
2022-07-26T23:22:52.530Z,225
2022-07-26T23:27:52.844Z,225
2022-07-26T23:32:52.122Z,248
2022-07-26T23:37:52.266Z,248
2022-07-26T23:42:52.392Z,248
2022-07-26T23:47:52.629Z,248
2022-07-26T23:52:52.960Z,248
2022-07-26T23:57:52.092Z,248
